This is the latest recevied weather packets stored in our database for station/object EA7RX-3. If no packets are shown the sender has not sent any weather packets the latest 10 day(s).
| Time | Temp. | Humidity | Pressure | Rain* | Wind** | Luminosity | Snow |
|---|---|---|---|---|---|---|---|
| 1777917502 | 18.33° C | 53% | 1010 hPa | - | - | - | - |
| 1777916902 | 18.89° C | 48% | 1009.9 hPa | - | - | - | - |
| 1777916302 | 18.89° C | 53% | 1009.7 hPa | - | - | - | - |
| 1777915702 | 19.44° C | 49% | 1009.5 hPa | - | - | - | - |
| 1777915102 | 20.56° C | 44% | 1009.1 hPa | - | - | - | - |
| 1777914502 | 20° C | 43% | 1009.4 hPa | - | - | - | - |
| 1777913902 | 20° C | 43% | 1009.3 hPa | - | - | - | - |
| 1777913302 | 21.11° C | 41% | 1009 hPa | - | - | - | - |
| 1777912702 | 20.56° C | 41% | 1008.9 hPa | - | - | - | - |
| 1777912102 | 21.11° C | 43% | 1008.6 hPa | - | - | - | - |
| 1777911507 | 19.44° C | 46% | 1009.1 hPa | - | - | - | - |
| 1777910902 | 21.11° C | 42% | 1008.6 hPa | - | - | - | - |
| 1777910302 | 20.56° C | 39% | 1008.7 hPa | - | - | - | - |
| 1777909702 | 21.11° C | 41% | 1008.6 hPa | - | - | - | - |
| 1777909102 | 21.11° C | 41% | 1008.8 hPa | - | - | - | - |
| 1777908502 | 20.56° C | 42% | 1008.7 hPa | - | - | - | - |
| 1777907903 | 20.56° C | 44% | 1008.9 hPa | - | - | - | - |
| 1777907302 | 20.56° C | 45% | 1009 hPa | - | - | - | - |
| 1777906702 | 20.56° C | 44% | 1008.9 hPa | - | - | - | - |
| 1777906102 | 20.56° C | 46% | 1008.9 hPa | - | - | - | - |
| 1777905502 | 20.56° C | 46% | 1009.1 hPa | - | - | - | - |
| 1777904902 | 20° C | 46% | 1009.3 hPa | - | - | - | - |
| 1777904303 | 20.56° C | 45% | 1009.2 hPa | - | - | - | - |
| 1777903702 | 20° C | 47% | 1009.3 hPa | - | - | - | - |
| 1777903102 | 20° C | 47% | 1009.5 hPa | - | - | - | - |
* Rain since midnight (hover to see other rain measurements)
** Current wind speed in m/s (hover to see current wind gust speed)